Aviation Digital Data Service (ADDS)

Output produced by METARs form (1443 UTC 23 January 2017)
found at http://aviationweather.gov/adds/metars/
 
KATL 231356Z 2314/2418 31012G18KT P6SM BKN007 OVC015 
     TEMPO 2314/2315 5SM -DZ BR OVC006 
     FM231600 31020G35KT P6SM OVC015 
     FM232000 31020G35KT P6SM SCT015 BKN025 
     FM240400 31015G25KT P6SM BKN015 
     FM240900 31012KT P6SM SCT015